Portada
METAR-TAF:

METAR-TAF

Aeroports :

Abakan, Rússia

latitud: 53-45N, longitud: 091-24E, altitud: 245 m

Observació

L'informe es va fer fa 23 minuts, a les 21:30 UTC
Vent 10 kt del Oest/Sud-Oest
Temperatura 10°C
Humitat 71%
Pressió 1005 hPa
Visibilitat 10 km o més
Núvols disperses a una alçada de 3800 ft

METAR: UNAA 052130Z 25005MPS 9999 SCT038 10/05 Q1005 R02/090065 NOSIG RMK QFE731

Hora: 04:53 (21:53 UTC)

Pronòstic

L'informe es va fer fa 2 hores i 2 minuts, a les 19:51 UTC
Pronòstic vàlid del 05 a les 21 UTC al 06 a les 21 UTC
Vent 12 kt del Oest amb ràfegues de 27 kt
Visibilitat: 6000 m
Cel ennuvolat a una alçada de 1600 ft, Cumulonimbus.
Temporalment
l' 05 a les 21 UTC al 06 a les 06 UTC
Visibilitat: 3200 m
xàfecs de pluja

TAF: UNAA 051951Z 0521/0621 27006G14MPS 6000 BKN016CB TEMPO 0521/0606 3200 -SHRA

Observacions i pronòstics meteorològics de més de 4000 aeroports (METAR i TAF).

Les estacions disponibles són els punts grocs i vermells al mapa.

Posi el ratolí al punt desitjat per veure el nom de l'estació.

Feu clic per veure les observacions i els pronòstics meteorològics.

Per canviar el mapa: feu clic els botons verds amb una creu de color negre per apropar; al botó verd amb un guió per allunyar la imatge; o en les fletxes verdes per a mapes adjacents.


METAR-TAF: